Aeroporto :
LOGIN :

Iscrizione | Disclaimer

   EN    FR    IT 

 










Sommario :    VFR   VFR Marginale   IFR   IFR Intensivo   IFR Molto Intensivo
Visibilità : 
Base nubi : 
>= 8 km
>= 3000ft
5 / 8 km
1000 / 3000 ft
1500m / 5 km
500 / 1000 ft
800 / 1500m
200 / 500 ft
< 800m
< 200 ft
Simboli :   Temporali  Nebbia  Neve Forte  Precipitazioni Forti  Vento > 20 kt
SIGMETs :   Varie  Temporali  Ghiacco  Turbolenza  Onda orograficha  Ceneri Vulcaniche






- Altitudine del aeroporto : 1585 ft
- Codice IATA : SIR


LSGS - Sion

ULTIMO METAR :
  • 011520Z VRB02KT 9999 FEW120 05/M02 Q1026

METARs OBSOLETI :
  • 011450Z VRB01KT 9999 FEW130 06/M02 Q1027
  • 011420Z 22004KT 190V250 9999 FEW130 05/M03 Q1027
  • 011350Z 27004KT 9999 FEW130 04/M03 Q1027
  • 011320Z 26003KT CAVOK 04/M03 Q1027
  • 011250Z 00000KT CAVOK 05/M03 Q1028

TAF TAF LSGS
Valido dal 01 a 15 ore il 02 a 00 ore UTC


011425Z 0115/0124 VRB02KT CAVOK
BECMG 0118/0120 BKN070



MetMap, La meteo Aeronautica in un colpo d'occhio ! - Copyright ORBIFLY Dicembre 2007 - Disclaimer

ORBIFLY MET'MAP TEAM :

Programmazione e sviluppo : Alexandra Zaïnal
Concezione : Baudouin d'Aumeries
Supporto tecnico e logistico : Manuel Goepfert
Aiuto : Marc-Olivier Méhu
Aiuto per la traduzione : Arnaldo La Scala




FONTI E CREDITI :

   NOAA